sensor_id;sensor_type;location;lat;lon;timestamp;pressure;altitude;pressure_sealevel;temperature;humidity
55301;BME280;58302;51.446;-2.000;2024-02-23T00:01:41;97745.88;;;1.45;100.00
55301;BME280;58302;51.446;-2.000;2024-02-23T00:04:07;97739.94;;;1.48;100.00
55301;BME280;58302;51.446;-2.000;2024-02-23T00:06:34;97740.75;;;1.54;100.00
55301;BME280;58302;51.446;-2.000;2024-02-23T00:09:00;97740.44;;;1.66;100.00
55301;BME280;58302;51.446;-2.000;2024-02-23T00:11:26;97728.34;;;1.73;100.00
55301;BME280;58302;51.446;-2.000;2024-02-23T00:13:53;97722.97;;;1.78;100.00
55301;BME280;58302;51.446;-2.000;2024-02-23T00:16:20;97720.53;;;1.87;100.00
55301;BME280;58302;51.446;-2.000;2024-02-23T00:18:46;97706.59;;;1.90;100.00
55301;BME280;58302;51.446;-2.000;2024-02-23T00:21:12;97696.59;;;2.01;100.00
55301;BME280;58302;51.446;-2.000;2024-02-23T00:23:37;97695.00;;;2.05;100.00
55301;BME280;58302;51.446;-2.000;2024-02-23T00:26:04;97697.34;;;2.11;100.00
55301;BME280;58302;51.446;-2.000;2024-02-23T00:28:30;97689.31;;;2.11;100.00
55301;BME280;58302;51.446;-2.000;2024-02-23T00:30:56;97690.38;;;2.16;100.00
55301;BME280;58302;51.446;-2.000;2024-02-23T00:33:22;97686.25;;;2.28;100.00
55301;BME280;58302;51.446;-2.000;2024-02-23T00:35:49;97672.00;;;2.33;100.00
55301;BME280;58302;51.446;-2.000;2024-02-23T00:38:15;97667.38;;;2.44;100.00
55301;BME280;58302;51.446;-2.000;2024-02-23T00:40:41;97669.19;;;2.53;100.00
55301;BME280;58302;51.446;-2.000;2024-02-23T00:43:07;97666.19;;;2.55;100.00
55301;BME280;58302;51.446;-2.000;2024-02-23T00:45:33;97658.44;;;2.53;100.00
55301;BME280;58302;51.446;-2.000;2024-02-23T00:47:59;97650.41;;;2.53;100.00
55301;BME280;58302;51.446;-2.000;2024-02-23T00:50:25;97653.88;;;2.54;100.00
55301;BME280;58302;51.446;-2.000;2024-02-23T00:52:53;97639.16;;;2.51;100.00
55301;BME280;58302;51.446;-2.000;2024-02-23T00:55:20;97641.31;;;2.49;100.00
55301;BME280;58302;51.446;-2.000;2024-02-23T00:57:47;97640.19;;;2.55;100.00
55301;BME280;58302;51.446;-2.000;2024-02-23T01:00:15;97634.03;;;2.55;100.00
55301;BME280;58302;51.446;-2.000;2024-02-23T01:02:41;97625.19;;;2.54;100.00
55301;BME280;58302;51.446;-2.000;2024-02-23T01:05:07;97612.00;;;2.58;100.00
55301;BME280;58302;51.446;-2.000;2024-02-23T01:07:35;97618.41;;;2.62;100.00
55301;BME280;58302;51.446;-2.000;2024-02-23T01:10:01;97605.28;;;2.60;100.00
55301;BME280;58302;51.446;-2.000;2024-02-23T01:12:27;97592.44;;;2.57;100.00
55301;BME280;58302;51.446;-2.000;2024-02-23T01:14:53;97601.25;;;2.63;100.00
55301;BME280;58302;51.446;-2.000;2024-02-23T01:17:19;97591.56;;;2.67;100.00
55301;BME280;58302;51.446;-2.000;2024-02-23T01:19:45;97583.50;;;2.67;100.00
55301;BME280;58302;51.446;-2.000;2024-02-23T01:22:12;97579.97;;;2.72;100.00
55301;BME280;58302;51.446;-2.000;2024-02-23T01:24:47;97585.59;;;2.75;100.00
55301;BME280;58302;51.446;-2.000;2024-02-23T01:27:21;97583.41;;;2.77;100.00
55301;BME280;58302;51.446;-2.000;2024-02-23T01:30:07;97579.88;;;2.82;100.00
55301;BME280;58302;51.446;-2.000;2024-02-23T01:32:38;97569.94;;;2.82;100.00
55301;BME280;58302;51.446;-2.000;2024-02-23T01:35:12;97573.91;;;2.85;100.00
55301;BME280;58302;51.446;-2.000;2024-02-23T01:37:39;97572.78;;;2.91;100.00
55301;BME280;58302;51.446;-2.000;2024-02-23T01:40:22;97574.03;;;2.99;100.00
55301;BME280;58302;51.446;-2.000;2024-02-23T01:43:00;97576.13;;;3.02;100.00
55301;BME280;58302;51.446;-2.000;2024-02-23T01:45:27;97576.13;;;3.02;100.00
55301;BME280;58302;51.446;-2.000;2024-02-23T01:47:53;97550.41;;;3.01;100.00
55301;BME280;58302;51.446;-2.000;2024-02-23T01:50:20;97556.28;;;3.03;100.00
55301;BME280;58302;51.446;-2.000;2024-02-23T01:52:47;97561.44;;;2.99;100.00
55301;BME280;58302;51.446;-2.000;2024-02-23T01:55:13;97558.44;;;3.01;100.00
55301;BME280;58302;51.446;-2.000;2024-02-23T01:57:45;97567.28;;;3.01;100.00
55301;BME280;58302;51.446;-2.000;2024-02-23T02:00:16;97570.22;;;3.05;100.00
55301;BME280;58302;51.446;-2.000;2024-02-23T02:02:44;97571.31;;;3.04;100.00
55301;BME280;58302;51.446;-2.000;2024-02-23T02:05:12;97568.81;;;3.07;100.00
55301;BME280;58302;51.446;-2.000;2024-02-23T02:07:39;97560.78;;;3.07;100.00
55301;BME280;58302;51.446;-2.000;2024-02-23T02:10:08;97563.19;;;3.09;100.00
55301;BME280;58302;51.446;-2.000;2024-02-23T02:12:35;97551.66;;;3.08;100.00
55301;BME280;58302;51.446;-2.000;2024-02-23T02:15:01;97547.16;;;3.04;100.00
55301;BME280;58302;51.446;-2.000;2024-02-23T02:17:28;97555.09;;;3.14;100.00
55301;BME280;58302;51.446;-2.000;2024-02-23T02:19:54;97552.09;;;3.15;100.00
55301;BME280;58302;51.446;-2.000;2024-02-23T02:22:20;97540.56;;;3.15;100.00
55301;BME280;58302;51.446;-2.000;2024-02-23T02:24:46;97524.84;;;3.08;100.00
55301;BME280;58302;51.446;-2.000;2024-02-23T02:27:15;97537.59;;;3.16;100.00
55301;BME280;58302;51.446;-2.000;2024-02-23T02:29:42;97531.00;;;3.09;100.00
55301;BME280;58302;51.446;-2.000;2024-02-23T02:32:08;97543.56;;;3.13;100.00
55301;BME280;58302;51.446;-2.000;2024-02-23T02:34:35;97561.44;;;3.18;100.00
55301;BME280;58302;51.446;-2.000;2024-02-23T02:37:00;97557.16;;;3.17;100.00
55301;BME280;58302;51.446;-2.000;2024-02-23T02:39:27;97568.44;;;3.19;100.00
55301;BME280;58302;51.446;-2.000;2024-02-23T02:41:54;97565.16;;;3.22;100.00
55301;BME280;58302;51.446;-2.000;2024-02-23T02:44:20;97563.50;;;3.26;100.00
55301;BME280;58302;51.446;-2.000;2024-02-23T02:46:47;97556.75;;;3.29;100.00
55301;BME280;58302;51.446;-2.000;2024-02-23T02:49:14;97559.22;;;3.25;100.00
55301;BME280;58302;51.446;-2.000;2024-02-23T02:51:50;97565.47;;;3.21;100.00
55301;BME280;58302;51.446;-2.000;2024-02-23T02:54:26;97567.91;;;3.17;100.00
55301;BME280;58302;51.446;-2.000;2024-02-23T02:56:52;97568.31;;;3.05;100.00
55301;BME280;58302;51.446;-2.000;2024-02-23T02:59:25;97581.84;;;2.95;100.00
55301;BME280;58302;51.446;-2.000;2024-02-23T03:01:51;97572.63;;;2.82;100.00
55301;BME280;58302;51.446;-2.000;2024-02-23T03:04:18;97575.13;;;2.74;100.00
55301;BME280;58302;51.446;-2.000;2024-02-23T03:06:48;97569.81;;;2.69;100.00
55301;BME280;58302;51.446;-2.000;2024-02-23T03:09:28;97573.69;;;2.57;100.00
55301;BME280;58302;51.446;-2.000;2024-02-23T03:11:54;97568.97;;;2.49;100.00
55301;BME280;58302;51.446;-2.000;2024-02-23T03:14:27;97582.66;;;2.48;100.00
55301;BME280;58302;51.446;-2.000;2024-02-23T03:17:04;97584.84;;;2.41;100.00
55301;BME280;58302;51.446;-2.000;2024-02-23T03:19:31;97589.75;;;2.33;100.00
55301;BME280;58302;51.446;-2.000;2024-02-23T03:22:08;97596.16;;;2.37;100.00
55301;BME280;58302;51.446;-2.000;2024-02-23T03:24:34;97604.22;;;2.32;100.00
55301;BME280;58302;51.446;-2.000;2024-02-23T03:27:01;97606.69;;;2.24;100.00
55301;BME280;58302;51.446;-2.000;2024-02-23T03:29:27;97603.03;;;2.15;100.00
55301;BME280;58302;51.446;-2.000;2024-02-23T03:31:56;97609.47;;;2.14;100.00
55301;BME280;58302;51.446;-2.000;2024-02-23T03:34:22;97615.13;;;2.07;100.00
55301;BME280;58302;51.446;-2.000;2024-02-23T03:36:48;97610.13;;;1.95;100.00
55301;BME280;58302;51.446;-2.000;2024-02-23T03:39:14;97619.00;;;1.91;100.00
55301;BME280;58302;51.446;-2.000;2024-02-23T03:41:40;97621.19;;;1.89;100.00
55301;BME280;58302;51.446;-2.000;2024-02-23T03:44:06;97624.38;;;1.91;100.00
55301;BME280;58302;51.446;-2.000;2024-02-23T03:46:35;97630.50;;;1.91;100.00
55301;BME280;58302;51.446;-2.000;2024-02-23T03:49:02;97630.84;;;1.84;100.00
55301;BME280;58302;51.446;-2.000;2024-02-23T03:51:33;97642.88;;;1.87;100.00
55301;BME280;58302;51.446;-2.000;2024-02-23T03:54:05;97647.41;;;1.87;100.00
55301;BME280;58302;51.446;-2.000;2024-02-23T03:56:41;97653.88;;;1.80;100.00
55301;BME280;58302;51.446;-2.000;2024-02-23T03:59:19;97660.88;;;1.76;100.00
55301;BME280;58302;51.446;-2.000;2024-02-23T04:01:47;97664.06;;;1.78;100.00
55301;BME280;58302;51.446;-2.000;2024-02-23T04:04:13;97676.34;;;1.84;100.00
55301;BME280;58302;51.446;-2.000;2024-02-23T04:06:39;97683.91;;;1.77;100.00
55301;BME280;58302;51.446;-2.000;2024-02-23T04:09:04;97688.72;;;1.70;100.00
55301;BME280;58302;51.446;-2.000;2024-02-23T04:11:33;97695.47;;;1.63;100.00
55301;BME280;58302;51.446;-2.000;2024-02-23T04:14:06;97693.41;;;1.49;100.00
55301;BME280;58302;51.446;-2.000;2024-02-23T04:16:32;97704.09;;;1.49;100.00
55301;BME280;58302;51.446;-2.000;2024-02-23T04:18:58;97684.84;;;1.47;100.00
55301;BME280;58302;51.446;-2.000;2024-02-23T04:21:25;97695.78;;;1.51;100.00
55301;BME280;58302;51.446;-2.000;2024-02-23T04:23:52;97708.66;;;1.49;100.00
55301;BME280;58302;51.446;-2.000;2024-02-23T04:26:18;97712.66;;;1.51;100.00
55301;BME280;58302;51.446;-2.000;2024-02-23T04:28:44;97716.69;;;1.49;100.00
55301;BME280;58302;51.446;-2.000;2024-02-23T04:31:10;97724.97;;;1.47;100.00
55301;BME280;58302;51.446;-2.000;2024-02-23T04:33:37;97744.78;;;1.46;100.00
55301;BME280;58302;51.446;-2.000;2024-02-23T04:36:04;97753.38;;;1.43;100.00
55301;BME280;58302;51.446;-2.000;2024-02-23T04:38:30;97756.06;;;1.38;100.00
55301;BME280;58302;51.446;-2.000;2024-02-23T04:40:57;97763.81;;;1.35;100.00
55301;BME280;58302;51.446;-2.000;2024-02-23T04:43:24;97772.91;;;1.34;100.00
55301;BME280;58302;51.446;-2.000;2024-02-23T04:45:55;97776.91;;;1.41;100.00
55301;BME280;58302;51.446;-2.000;2024-02-23T04:48:41;97792.69;;;1.43;100.00
55301;BME280;58302;51.446;-2.000;2024-02-23T04:51:07;97794.31;;;1.49;100.00
55301;BME280;58302;51.446;-2.000;2024-02-23T04:53:38;97809.00;;;1.51;100.00
55301;BME280;58302;51.446;-2.000;2024-02-23T04:56:05;97814.63;;;1.55;100.00
55301;BME280;58302;51.446;-2.000;2024-02-23T04:58:31;97809.81;;;1.42;100.00
55301;BME280;58302;51.446;-2.000;2024-02-23T05:00:57;97828.53;;;1.47;100.00
55301;BME280;58302;51.446;-2.000;2024-02-23T05:03:23;97835.25;;;1.44;100.00
55301;BME280;58302;51.446;-2.000;2024-02-23T05:05:49;97872.44;;;1.46;100.00
55301;BME280;58302;51.446;-2.000;2024-02-23T05:08:20;97882.06;;;1.47;100.00
55301;BME280;58302;51.446;-2.000;2024-02-23T05:10:46;97893.03;;;1.50;100.00
55301;BME280;58302;51.446;-2.000;2024-02-23T05:13:13;97896.25;;;1.47;100.00
55301;BME280;58302;51.446;-2.000;2024-02-23T05:15:39;97906.69;;;1.49;100.00
55301;BME280;58302;51.446;-2.000;2024-02-23T05:18:05;97918.72;;;1.46;100.00
55301;BME280;58302;51.446;-2.000;2024-02-23T05:20:31;97919.00;;;1.40;100.00
55301;BME280;58302;51.446;-2.000;2024-02-23T05:22:57;97923.56;;;1.39;100.00
55301;BME280;58302;51.446;-2.000;2024-02-23T05:25:23;97921.16;;;1.33;100.00
55301;BME280;58302;51.446;-2.000;2024-02-23T05:27:51;97936.66;;;1.36;100.00
55301;BME280;58302;51.446;-2.000;2024-02-23T05:30:17;97933.47;;;1.44;100.00
55301;BME280;58302;51.446;-2.000;2024-02-23T05:32:43;97951.13;;;1.50;100.00
55301;BME280;58302;51.446;-2.000;2024-02-23T05:35:09;97964.22;;;1.51;100.00
55301;BME280;58302;51.446;-2.000;2024-02-23T05:37:36;97972.25;;;1.56;100.00
55301;BME280;58302;51.446;-2.000;2024-02-23T05:40:03;97977.09;;;1.60;100.00
55301;BME280;58302;51.446;-2.000;2024-02-23T05:42:32;97987.78;;;1.60;100.00
55301;BME280;58302;51.446;-2.000;2024-02-23T05:44:58;97982.69;;;1.58;100.00
55301;BME280;58302;51.446;-2.000;2024-02-23T05:47:24;98000.09;;;1.50;100.00
55301;BME280;58302;51.446;-2.000;2024-02-23T05:49:50;97999.78;;;1.37;100.00
55301;BME280;58302;51.446;-2.000;2024-02-23T05:52:16;98008.63;;;1.27;100.00
55301;BME280;58302;51.446;-2.000;2024-02-23T05:54:42;98018.53;;;1.21;100.00
55301;BME280;58302;51.446;-2.000;2024-02-23T05:57:08;98026.78;;;1.20;100.00
55301;BME280;58302;51.446;-2.000;2024-02-23T05:59:34;98024.94;;;1.25;100.00
55301;BME280;58302;51.446;-2.000;2024-02-23T06:02:01;98038.06;;;1.27;100.00
55301;BME280;58302;51.446;-2.000;2024-02-23T06:04:27;98049.56;;;1.27;100.00
55301;BME280;58302;51.446;-2.000;2024-02-23T06:06:54;98043.41;;;1.27;100.00
55301;BME280;58302;51.446;-2.000;2024-02-23T06:09:21;98051.16;;;1.23;100.00
55301;BME280;58302;51.446;-2.000;2024-02-23T06:11:46;98055.72;;;1.28;100.00
55301;BME280;58302;51.446;-2.000;2024-02-23T06:14:13;98064.56;;;1.34;100.00
55301;BME280;58302;51.446;-2.000;2024-02-23T06:16:39;98064.81;;;1.37;100.00
55301;BME280;58302;51.446;-2.000;2024-02-23T06:19:06;98071.25;;;1.36;100.00
55301;BME280;58302;51.446;-2.000;2024-02-23T06:21:32;98100.69;;;1.36;100.00
55301;BME280;58302;51.446;-2.000;2024-02-23T06:23:58;98084.91;;;1.40;100.00
55301;BME280;58302;51.446;-2.000;2024-02-23T06:26:24;98098.31;;;1.50;100.00
55301;BME280;58302;51.446;-2.000;2024-02-23T06:28:50;98105.00;;;1.47;100.00
55301;BME280;58302;51.446;-2.000;2024-02-23T06:31:16;98119.16;;;1.48;100.00
55301;BME280;58302;51.446;-2.000;2024-02-23T06:33:42;98129.63;;;1.49;100.00
55301;BME280;58302;51.446;-2.000;2024-02-23T06:36:09;98140.88;;;1.51;100.00
55301;BME280;58302;51.446;-2.000;2024-02-23T06:38:35;98150.78;;;1.51;100.00
55301;BME280;58302;51.446;-2.000;2024-02-23T06:41:01;98308.66;;;1.46;100.00
55301;BME280;58302;51.446;-2.000;2024-02-23T06:43:27;98208.84;;;1.45;100.00
55301;BME280;58302;51.446;-2.000;2024-02-23T06:45:53;98181.78;;;1.42;100.00
55301;BME280;58302;51.446;-2.000;2024-02-23T06:48:20;98188.75;;;1.38;100.00
55301;BME280;58302;51.446;-2.000;2024-02-23T06:50:46;98194.91;;;1.43;100.00
55301;BME280;58302;51.446;-2.000;2024-02-23T06:53:12;98206.66;;;1.42;100.00
55301;BME280;58302;51.446;-2.000;2024-02-23T06:55:38;98209.31;;;1.37;100.00
55301;BME280;58302;51.446;-2.000;2024-02-23T06:58:04;98204.50;;;1.34;100.00
55301;BME280;58302;51.446;-2.000;2024-02-23T07:00:31;98203.13;;;1.31;100.00
55301;BME280;58302;51.446;-2.000;2024-02-23T07:02:56;98214.44;;;1.39;100.00
55301;BME280;58302;51.446;-2.000;2024-02-23T07:05:25;98238.53;;;1.44;100.00
55301;BME280;58302;51.446;-2.000;2024-02-23T07:07:51;98251.94;;;1.49;100.00
55301;BME280;58302;51.446;-2.000;2024-02-23T07:10:17;98262.16;;;1.62;100.00
55301;BME280;58302;51.446;-2.000;2024-02-23T07:12:44;98279.91;;;1.78;100.00
55301;BME280;58302;51.446;-2.000;2024-02-23T07:15:10;98302.47;;;1.93;100.00
55301;BME280;58302;51.446;-2.000;2024-02-23T07:17:36;98297.13;;;2.03;100.00
55301;BME280;58302;51.446;-2.000;2024-02-23T07:20:02;98313.78;;;2.10;100.00
55301;BME280;58302;51.446;-2.000;2024-02-23T07:22:32;98318.09;;;2.16;100.00
55301;BME280;58302;51.446;-2.000;2024-02-23T07:24:58;98304.19;;;2.24;100.00
55301;BME280;58302;51.446;-2.000;2024-02-23T07:27:25;98293.50;;;2.34;100.00
55301;BME280;58302;51.446;-2.000;2024-02-23T07:29:51;98315.19;;;2.33;100.00
55301;BME280;58302;51.446;-2.000;2024-02-23T07:32:17;98318.97;;;2.32;100.00
55301;BME280;58302;51.446;-2.000;2024-02-23T07:34:43;98328.34;;;2.40;100.00
55301;BME280;58302;51.446;-2.000;2024-02-23T07:37:09;98350.31;;;2.42;100.00
55301;BME280;58302;51.446;-2.000;2024-02-23T07:39:35;98362.13;;;2.46;100.00
55301;BME280;58302;51.446;-2.000;2024-02-23T07:42:01;98387.88;;;2.52;100.00
55301;BME280;58302;51.446;-2.000;2024-02-23T07:44:28;98392.47;;;2.56;100.00
55301;BME280;58302;51.446;-2.000;2024-02-23T07:46:54;98395.97;;;2.62;100.00
55301;BME280;58302;51.446;-2.000;2024-02-23T07:49:21;98389.81;;;2.61;100.00
55301;BME280;58302;51.446;-2.000;2024-02-23T07:51:47;98400.81;;;2.65;100.00
55301;BME280;58302;51.446;-2.000;2024-02-23T07:54:14;98398.94;;;2.71;100.00
55301;BME280;58302;51.446;-2.000;2024-02-23T07:56:40;98408.06;;;2.80;100.00
55301;BME280;58302;51.446;-2.000;2024-02-23T07:59:06;98415.09;;;2.96;100.00
55301;BME280;58302;51.446;-2.000;2024-02-23T08:01:32;98437.66;;;3.15;100.00
55301;BME280;58302;51.446;-2.000;2024-02-23T08:03:58;98447.88;;;3.24;100.00
55301;BME280;58302;51.446;-2.000;2024-02-23T08:06:23;98471.00;;;3.30;100.00
55301;BME280;58302;51.446;-2.000;2024-02-23T08:08:49;98468.28;;;3.45;100.00
55301;BME280;58302;51.446;-2.000;2024-02-23T08:11:15;98487.41;;;3.74;100.00
55301;BME280;58302;51.446;-2.000;2024-02-23T08:13:42;98497.03;;;4.16;100.00
55301;BME280;58302;51.446;-2.000;2024-02-23T08:16:07;98514.97;;;4.51;100.00
55301;BME280;58302;51.446;-2.000;2024-02-23T08:18:34;98539.31;;;4.95;100.00
55301;BME280;58302;51.446;-2.000;2024-02-23T08:20:59;98536.00;;;5.09;100.00
55301;BME280;58302;51.446;-2.000;2024-02-23T08:23:29;98501.03;;;5.03;100.00
55301;BME280;58302;51.446;-2.000;2024-02-23T08:25:55;98477.78;;;4.73;100.00
55301;BME280;58302;51.446;-2.000;2024-02-23T08:28:26;98446.94;;;4.51;100.00
55301;BME280;58302;51.446;-2.000;2024-02-23T08:30:52;98411.75;;;4.37;100.00
55301;BME280;58302;51.446;-2.000;2024-02-23T08:33:19;98374.44;;;4.15;100.00
55301;BME280;58302;51.446;-2.000;2024-02-23T08:35:45;98357.00;;;4.07;100.00
55301;BME280;58302;51.446;-2.000;2024-02-23T08:38:14;98328.28;;;3.97;100.00
55301;BME280;58302;51.446;-2.000;2024-02-23T08:40:40;98318.63;;;3.96;100.00
55301;BME280;58302;51.446;-2.000;2024-02-23T08:43:07;98306.78;;;3.97;100.00
55301;BME280;58302;51.446;-2.000;2024-02-23T08:45:33;98298.72;;;3.97;100.00
55301;BME280;58302;51.446;-2.000;2024-02-23T08:47:59;98283.66;;;4.02;100.00
55301;BME280;58302;51.446;-2.000;2024-02-23T08:50:25;98274.25;;;3.99;100.00
55301;BME280;58302;51.446;-2.000;2024-02-23T08:52:51;98271.03;;;3.97;100.00
55301;BME280;58302;51.446;-2.000;2024-02-23T08:55:17;98261.63;;;3.94;100.00
55301;BME280;58302;51.446;-2.000;2024-02-23T08:57:43;98247.69;;;3.92;100.00
55301;BME280;58302;51.446;-2.000;2024-02-23T09:00:10;98236.38;;;3.95;100.00
55301;BME280;58302;51.446;-2.000;2024-02-23T09:02:36;98222.91;;;4.01;100.00
55301;BME280;58302;51.446;-2.000;2024-02-23T09:05:04;98215.91;;;4.05;100.00
55301;BME280;58302;51.446;-2.000;2024-02-23T09:07:30;98194.09;;;4.11;100.00
55301;BME280;58302;51.446;-2.000;2024-02-23T09:09:56;98190.06;;;4.14;100.00
55301;BME280;58302;51.446;-2.000;2024-02-23T09:12:22;98188.66;;;4.21;100.00
55301;BME280;58302;51.446;-2.000;2024-02-23T09:14:48;98177.34;;;4.25;100.00
55301;BME280;58302;51.446;-2.000;2024-02-23T09:17:14;98177.00;;;4.36;100.00
55301;BME280;58302;51.446;-2.000;2024-02-23T09:19:40;98185.41;;;4.59;100.00
55301;BME280;58302;51.446;-2.000;2024-02-23T09:22:06;98171.59;;;4.70;100.00
55301;BME280;58302;51.446;-2.000;2024-02-23T09:24:32;98166.88;;;4.86;100.00
55301;BME280;58302;51.446;-2.000;2024-02-23T09:26:58;98151.13;;;4.98;100.00
55301;BME280;58302;51.446;-2.000;2024-02-23T09:29:24;98124.72;;;5.06;100.00
55301;BME280;58302;51.446;-2.000;2024-02-23T09:31:50;98105.09;;;5.24;100.00
55301;BME280;58302;51.446;-2.000;2024-02-23T09:34:16;98089.91;;;5.33;100.00
55301;BME280;58302;51.446;-2.000;2024-02-23T09:36:43;98052.47;;;5.32;100.00
55301;BME280;58302;51.446;-2.000;2024-02-23T09:39:08;98049.72;;;5.37;100.00
55301;BME280;58302;51.446;-2.000;2024-02-23T09:41:34;98041.13;;;5.53;100.00
55301;BME280;58302;51.446;-2.000;2024-02-23T09:44:01;98020.16;;;5.69;100.00
55301;BME280;58302;51.446;-2.000;2024-02-23T09:46:28;98000.34;;;5.79;100.00
55301;BME280;58302;51.446;-2.000;2024-02-23T09:48:55;97986.25;;;6.01;100.00
55301;BME280;58302;51.446;-2.000;2024-02-23T09:51:22;97963.63;;;6.16;100.00
55301;BME280;58302;51.446;-2.000;2024-02-23T09:53:49;97944.84;;;6.24;100.00
55301;BME280;58302;51.446;-2.000;2024-02-23T09:56:17;97916.78;;;6.39;100.00
55301;BME280;58302;51.446;-2.000;2024-02-23T09:58:46;97908.78;;;6.62;100.00
55301;BME280;58302;51.446;-2.000;2024-02-23T10:01:21;97893.28;;;6.67;100.00
55301;BME280;58302;51.446;-2.000;2024-02-23T10:03:51;97851.09;;;6.71;100.00
55301;BME280;58302;51.446;-2.000;2024-02-23T10:06:17;97845.28;;;6.78;100.00
55301;BME280;58302;51.446;-2.000;2024-02-23T10:08:43;97823.88;;;6.81;100.00
55301;BME280;58302;51.446;-2.000;2024-02-23T10:11:09;97807.13;;;6.71;100.00
55301;BME280;58302;51.446;-2.000;2024-02-23T10:13:35;97782.53;;;6.72;100.00
55301;BME280;58302;51.446;-2.000;2024-02-23T10:16:01;97780.41;;;6.69;100.00
55301;BME280;58302;51.446;-2.000;2024-02-23T10:18:27;97767.47;;;6.80;100.00
55301;BME280;58302;51.446;-2.000;2024-02-23T10:20:53;97770.38;;;6.83;100.00
55301;BME280;58302;51.446;-2.000;2024-02-23T10:23:19;97771.53;;;6.91;100.00
55301;BME280;58302;51.446;-2.000;2024-02-23T10:25:45;97782.31;;;7.13;100.00
55301;BME280;58302;51.446;-2.000;2024-02-23T10:28:12;97794.31;;;7.21;100.00
55301;BME280;58302;51.446;-2.000;2024-02-23T10:30:37;97819.19;;;7.40;100.00
55301;BME280;58302;51.446;-2.000;2024-02-23T10:33:05;97890.00;;;7.51;100.00
55301;BME280;58302;51.446;-2.000;2024-02-23T10:35:32;97951.47;;;7.46;100.00
55301;BME280;58302;51.446;-2.000;2024-02-23T10:38:01;98048.16;;;7.49;100.00
55301;BME280;58302;51.446;-2.000;2024-02-23T10:40:30;98228.22;;;7.31;100.00
55301;BME280;58302;51.446;-2.000;2024-02-23T10:43:00;98375.13;;;7.35;100.00
55301;BME280;58302;51.446;-2.000;2024-02-23T10:45:28;98463.41;;;7.58;100.00
55301;BME280;58302;51.446;-2.000;2024-02-23T10:47:55;98539.66;;;7.74;100.00
55301;BME280;58302;51.446;-2.000;2024-02-23T10:50:23;98606.31;;;8.03;100.00
55301;BME280;58302;51.446;-2.000;2024-02-23T10:52:50;98666.19;;;8.15;100.00
55301;BME280;58302;51.446;-2.000;2024-02-23T10:55:16;98702.31;;;8.24;100.00
55301;BME280;58302;51.446;-2.000;2024-02-23T10:57:43;98718.13;;;8.55;100.00
55301;BME280;58302;51.446;-2.000;2024-02-23T11:00:09;98749.09;;;9.00;100.00
55301;BME280;58302;51.446;-2.000;2024-02-23T11:02:39;98791.00;;;9.21;100.00
55301;BME280;58302;51.446;-2.000;2024-02-23T11:05:06;98796.34;;;9.73;100.00
55301;BME280;58302;51.446;-2.000;2024-02-23T11:07:38;98812.03;;;10.31;100.00
55301;BME280;58302;51.446;-2.000;2024-02-23T11:10:05;98862.50;;;10.32;100.00
55301;BME280;58302;51.446;-2.000;2024-02-23T11:12:33;98901.13;;;9.83;100.00
55301;BME280;58302;51.446;-2.000;2024-02-23T11:15:00;98918.84;;;9.29;100.00
55301;BME280;58302;51.446;-2.000;2024-02-23T11:17:29;98912.16;;;8.64;100.00
55301;BME280;58302;51.446;-2.000;2024-02-23T11:19:57;98891.47;;;8.26;100.00
55301;BME280;58302;51.446;-2.000;2024-02-23T11:22:33;98854.66;;;8.01;100.00
55301;BME280;58302;51.446;-2.000;2024-02-23T11:25:04;98824.41;;;7.75;100.00
55301;BME280;58302;51.446;-2.000;2024-02-23T11:27:41;98788.69;;;7.49;100.00
55301;BME280;58302;51.446;-2.000;2024-02-23T11:30:10;98758.13;;;7.24;100.00
55301;BME280;58302;51.446;-2.000;2024-02-23T11:32:43;98727.44;;;7.15;100.00
55301;BME280;58302;51.446;-2.000;2024-02-23T11:35:14;98688.91;;;7.04;100.00
55301;BME280;58302;51.446;-2.000;2024-02-23T11:37:48;98662.09;;;6.84;100.00
55301;BME280;58302;51.446;-2.000;2024-02-23T11:40:22;98638.72;;;6.69;100.00
55301;BME280;58302;51.446;-2.000;2024-02-23T11:42:48;98609.06;;;6.64;100.00
55301;BME280;58302;51.446;-2.000;2024-02-23T11:45:14;98556.84;;;6.79;100.00
55301;BME280;58302;51.446;-2.000;2024-02-23T11:47:40;98513.78;;;7.11;100.00
55301;BME280;58302;51.446;-2.000;2024-02-23T11:50:08;98482.19;;;7.31;100.00
55301;BME280;58302;51.446;-2.000;2024-02-23T11:52:36;98463.25;;;7.50;100.00
55301;BME280;58302;51.446;-2.000;2024-02-23T11:55:02;98443.78;;;7.99;100.00
55301;BME280;58302;51.446;-2.000;2024-02-23T11:57:32;98420.09;;;8.51;100.00
55301;BME280;58302;51.446;-2.000;2024-02-23T12:00:01;98452.91;;;8.50;100.00
55301;BME280;58302;51.446;-2.000;2024-02-23T12:02:38;98484.63;;;8.30;100.00
55301;BME280;58302;51.446;-2.000;2024-02-23T12:05:04;98512.69;;;8.21;100.00
55301;BME280;58302;51.446;-2.000;2024-02-23T12:07:32;98535.13;;;7.88;100.00
55301;BME280;58302;51.446;-2.000;2024-02-23T12:09:58;98559.47;;;7.51;100.00
55301;BME280;58302;51.446;-2.000;2024-02-23T12:12:25;98549.66;;;6.93;100.00
55301;BME280;58302;51.446;-2.000;2024-02-23T12:14:52;98525.34;;;6.45;100.00
55301;BME280;58302;51.446;-2.000;2024-02-23T12:17:18;98478.59;;;6.26;100.00
55301;BME280;58302;51.446;-2.000;2024-02-23T12:19:44;98422.94;;;6.35;100.00
55301;BME280;58302;51.446;-2.000;2024-02-23T12:22:11;98378.97;;;6.53;100.00
55301;BME280;58302;51.446;-2.000;2024-02-23T12:24:41;98348.72;;;6.75;100.00
55301;BME280;58302;51.446;-2.000;2024-02-23T12:27:08;98314.53;;;6.90;100.00
55301;BME280;58302;51.446;-2.000;2024-02-23T12:29:34;98296.09;;;7.10;100.00
55301;BME280;58302;51.446;-2.000;2024-02-23T12:32:05;98295.41;;;7.19;100.00
55301;BME280;58302;51.446;-2.000;2024-02-23T12:34:31;98283.97;;;7.08;100.00
55301;BME280;58302;51.446;-2.000;2024-02-23T12:36:57;98288.81;;;6.92;100.00
55301;BME280;58302;51.446;-2.000;2024-02-23T12:39:23;98280.22;;;6.90;100.00
55301;BME280;58302;51.446;-2.000;2024-02-23T12:41:49;98270.84;;;7.01;100.00
55301;BME280;58302;51.446;-2.000;2024-02-23T12:44:16;98258.06;;;7.07;100.00
55301;BME280;58302;51.446;-2.000;2024-02-23T12:46:42;98250.91;;;7.16;100.00
55301;BME280;58302;51.446;-2.000;2024-02-23T12:49:08;98260.16;;;7.43;100.00
55301;BME280;58302;51.446;-2.000;2024-02-23T12:51:34;98258.25;;;7.57;100.00